Time;durP1;ratioP1;P1;durP2;ratioP2;P2;SDS_P1;SDS_P2;PMS_P1;PMS_P2;Temp;Humidity;BMP_temperature;BMP_pressure;BME280_temperature;BME280_humidity;BME280_pressure;Samples;Min_cycle;Max_cycle;Signal;HPM_P1;HPM_P2
2022/11/15 03:46:23;;;;;;;92.53;9.07;;;9.40;99.90;;;;;;5571344;23;83740;-84
2022/11/15 03:48:53;;;;;;;42.60;9.15;;;9.40;99.90;;;;;;4841138;29;82341;-81
2022/11/15 03:51:19;;;;;;;52.13;9.43;;;9.30;99.90;;;;;;4845802;29;82648;-81
2022/11/15 03:53:46;;;;;;;43.28;8.07;;;9.40;99.90;;;;;;4847452;29;82451;-84
2022/11/15 03:56:11;;;;;;;43.03;7.38;;;9.40;99.90;;;;;;4858677;29;82042;-82
2022/11/15 03:58:37;;;;;;;65.93;9.23;;;9.40;99.90;;;;;;4845512;29;82063;-84
2022/11/15 04:01:03;;;;;;;134.98;9.95;;;9.50;99.90;;;;;;4842529;29;81137;-84
2022/11/15 04:03:29;;;;;;;229.77;11.07;;;9.50;99.90;;;;;;4848720;29;83319;-82
2022/11/15 04:05:55;;;;;;;226.52;10.23;;;9.40;99.90;;;;;;4868148;29;82480;-82
2022/11/15 04:08:21;;;;;;;206.98;11.13;;;9.40;99.90;;;;;;4868287;29;82369;-81
2022/11/15 04:10:49;;;;;;;159.85;9.88;;;9.30;99.90;;;;;;4868199;29;81764;-82
2022/11/15 04:13:15;;;;;;;246.05;10.60;;;9.20;99.90;;;;;;4863773;29;82364;-82
2022/11/15 04:15:40;;;;;;;291.73;11.82;;;9.20;99.90;;;;;;4851170;29;82637;-82
2022/11/15 04:18:06;;;;;;;101.95;9.00;;;9.10;99.90;;;;;;4868459;29;83566;-83
2022/11/15 04:26:18;;;;;;;76.07;7.43;;;8.70;99.90;;;;;;4849401;29;81811;-81
2022/11/15 04:31:28;;;;;;;115.82;7.95;;;8.50;99.90;;;;;;4849019;29;81757;-80
2022/11/15 04:33:54;;;;;;;26.45;5.75;;;8.20;99.90;;;;;;4849254;29;82444;-81
2022/11/15 04:39:04;;;;;;;167.77;7.60;;;8.00;99.90;;;;;;4869157;29;81103;-81
2022/11/15 04:41:30;;;;;;;32.90;4.85;;;7.80;99.90;;;;;;4867810;29;82905;-82
2022/11/15 04:43:56;;;;;;;87.55;6.78;;;7.70;99.90;;;;;;4851043;29;81231;-80
2022/11/15 04:46:23;;;;;;;34.15;5.60;;;7.70;99.90;;;;;;4860462;29;82481;-81
2022/11/15 04:48:49;;;;;;;53.40;5.38;;;7.70;99.90;;;;;;4868664;29;82229;-82
2022/11/15 04:51:15;;;;;;;32.47;5.35;;;7.60;99.90;;;;;;4854676;29;81706;-82
2022/11/15 04:53:41;;;;;;;20.33;5.22;;;7.50;99.90;;;;;;4850023;29;81925;-82
2022/11/15 04:56:07;;;;;;;26.23;6.15;;;7.40;99.90;;;;;;4850168;29;82015;-80
2022/11/15 04:58:33;;;;;;;10.95;5.15;;;7.30;99.90;;;;;;4846892;29;81755;-81
2022/11/15 05:01:09;;;;;;;11.18;5.95;;;7.20;99.90;;;;;;4863113;29;81629;-81
2022/11/15 05:06:19;;;;;;;13.48;5.55;;;7.00;99.90;;;;;;4842251;29;82861;-82
2022/11/15 05:08:45;;;;;;;10.60;5.72;;;7.00;99.90;;;;;;4852716;29;82530;-79
2022/11/15 05:11:10;;;;;;;10.32;5.13;;;6.90;99.90;;;;;;4843838;29;81834;-80
2022/11/15 05:13:36;;;;;;;8.18;4.55;;;6.90;99.90;;;;;;4851993;29;82044;-80
2022/11/15 05:16:02;;;;;;;11.13;5.32;;;6.90;99.90;;;;;;4852280;29;83810;-81
2022/11/15 05:18:27;;;;;;;9.25;4.97;;;6.90;99.90;;;;;;4851738;29;82661;-83
2022/11/15 05:20:53;;;;;;;9.85;5.63;;;6.80;99.90;;;;;;4842478;29;82007;-81
2022/11/15 05:23:19;;;;;;;8.85;4.53;;;6.70;99.90;;;;;;4857659;29;82275;-80
2022/11/15 05:25:44;;;;;;;11.57;5.40;;;6.70;99.90;;;;;;4852375;29;82726;-81
2022/11/15 05:28:10;;;;;;;11.32;5.43;;;6.60;99.90;;;;;;4852092;29;82948;-83
2022/11/15 05:30:36;;;;;;;9.40;5.05;;;6.50;99.90;;;;;;4840237;29;83267;-82
2022/11/15 05:33:01;;;;;;;9.60;5.43;;;6.40;99.90;;;;;;4843233;29;81106;-82
2022/11/15 05:35:33;;;;;;;11.57;5.60;;;6.40;99.90;;;;;;4862397;29;82439;-84
2022/11/15 05:37:59;;;;;;;10.00;4.80;;;6.40;99.90;;;;;;4848747;29;82047;-82
2022/11/15 05:40:26;;;;;;;11.27;6.05;;;6.40;99.90;;;;;;4844904;29;81514;-81
2022/11/15 05:42:52;;;;;;;12.57;6.18;;;6.30;99.90;;;;;;4851463;29;81938;-77
2022/11/15 05:45:17;;;;;;;12.48;6.20;;;6.20;99.90;;;;;;4847272;29;82195;-81
2022/11/15 05:47:44;;;;;;;11.15;5.93;;;6.10;99.90;;;;;;4851256;29;82513;-78
2022/11/15 05:50:14;;;;;;;10.85;5.65;;;6.20;99.90;;;;;;4848014;29;81945;-81
2022/11/15 05:52:40;;;;;;;10.68;5.45;;;6.20;99.90;;;;;;4851465;29;81432;-77
2022/11/15 05:55:07;;;;;;;12.10;5.85;;;6.20;99.90;;;;;;4846841;29;83189;-77
2022/11/15 05:57:33;;;;;;;11.82;5.65;;;6.20;99.90;;;;;;4846724;29;82851;-75
2022/11/15 05:59:58;;;;;;;16.13;8.43;;;6.20;99.90;;;;;;4852343;29;81430;-75
2022/11/15 06:02:24;;;;;;;11.57;5.80;;;6.20;99.90;;;;;;4848020;29;81506;-75
2022/11/15 06:04:50;;;;;;;12.13;6.85;;;6.10;99.90;;;;;;4849614;29;81847;-75
2022/11/15 06:07:15;;;;;;;14.70;7.55;;;6.10;99.90;;;;;;4838354;29;82127;-76
2022/11/15 06:09:41;;;;;;;19.80;7.05;;;5.90;99.90;;;;;;4840264;29;82280;-77
2022/11/15 06:12:07;;;;;;;14.60;7.55;;;5.90;99.90;;;;;;4849039;29;81152;-75
2022/11/15 06:14:32;;;;;;;10.98;6.13;;;5.80;99.90;;;;;;4848900;29;81760;-76
2022/11/15 06:16:58;;;;;;;11.82;5.68;;;5.70;99.90;;;;;;4840386;29;82666;-75
2022/11/15 06:19:24;;;;;;;11.40;6.70;;;5.70;99.90;;;;;;4846190;29;82088;-76
2022/11/15 06:21:49;;;;;;;17.80;7.97;;;5.70;99.90;;;;;;4844919;29;82601;-75
2022/11/15 06:24:15;;;;;;;12.50;6.45;;;5.70;99.90;;;;;;4844179;29;83235;-75
2022/11/15 06:26:40;;;;;;;16.98;7.00;;;5.70;99.90;;;;;;4844917;29;81418;-75
2022/11/15 06:29:06;;;;;;;11.82;6.63;;;5.70;99.90;;;;;;4848702;29;81613;-77
2022/11/15 06:31:33;;;;;;;14.30;6.78;;;5.70;99.90;;;;;;4849144;29;81604;-75
2022/11/15 06:33:59;;;;;;;14.32;6.78;;;5.80;99.90;;;;;;4841832;29;82463;-75
2022/11/15 06:36:24;;;;;;;12.20;5.78;;;5.80;99.90;;;;;;4849447;29;82012;-75
2022/11/15 06:38:50;;;;;;;13.48;6.60;;;5.80;99.90;;;;;;4848417;29;82046;-75
2022/11/15 06:41:17;;;;;;;14.15;6.43;;;5.80;99.90;;;;;;4848106;29;81496;-75
2022/11/15 06:43:43;;;;;;;29.95;6.30;;;5.80;99.90;;;;;;4847948;29;84513;-76
2022/11/15 06:46:09;;;;;;;17.40;6.80;;;5.90;99.90;;;;;;4848573;29;83225;-76
2022/11/15 06:48:34;;;;;;;14.18;6.60;;;5.90;99.90;;;;;;4845443;29;81969;-76
2022/11/15 06:51:02;;;;;;;13.65;6.95;;;6.00;99.90;;;;;;4836974;29;83212;-74
2022/11/15 06:53:29;;;;;;;15.32;8.07;;;6.10;99.90;;;;;;4848670;29;81916;-75
2022/11/15 06:56:02;;;;;;;19.52;10.13;;;6.30;99.90;;;;;;4841280;29;82375;-75
2022/11/15 06:58:28;;;;;;;24.98;9.45;;;6.40;99.90;;;;;;4838604;29;81990;-75
2022/11/15 07:00:54;;;;;;;13.65;6.72;;;6.50;99.90;;;;;;4848751;29;82240;-75
2022/11/15 07:03:19;;;;;;;11.63;6.28;;;6.70;99.90;;;;;;4847642;29;82683;-76
2022/11/15 07:05:56;;;;;;;15.43;8.63;;;6.80;99.90;;;;;;4848456;29;81894;-75
2022/11/15 07:08:23;;;;;;;25.13;7.32;;;7.00;99.90;;;;;;4833601;29;82757;-76
2022/11/15 07:10:48;;;;;;;84.05;9.27;;;7.10;99.90;;;;;;4847472;29;81807;-76
2022/11/15 07:13:14;;;;;;;41.72;8.75;;;7.20;99.90;;;;;;4848555;29;81950;-77
2022/11/15 07:15:40;;;;;;;46.70;9.85;;;7.10;99.90;;;;;;4847745;29;82965;-75
2022/11/15 07:18:06;;;;;;;38.60;10.90;;;7.30;99.90;;;;;;4847807;29;81127;-76
2022/11/15 07:20:31;;;;;;;58.53;11.25;;;7.40;99.90;;;;;;4841265;29;82407;-77
2022/11/15 07:23:01;;;;;;;71.60;13.48;;;7.50;99.90;;;;;;4846939;29;82798;-76
2022/11/15 07:25:27;;;;;;;59.75;12.55;;;7.70;99.90;;;;;;4846375;29;82589;-75
2022/11/15 07:27:57;;;;;;;60.95;12.07;;;7.90;99.90;;;;;;4846373;29;82627;-75
2022/11/15 07:30:23;;;;;;;72.90;12.40;;;8.20;99.90;;;;;;4844094;29;82160;-76
2022/11/15 07:32:55;;;;;;;107.43;11.48;;;8.40;99.90;;;;;;4845814;29;83850;-77
2022/11/15 07:35:21;;;;;;;56.45;12.27;;;8.40;99.90;;;;;;4836600;29;82845;-75
2022/11/15 07:38:01;;;;;;;53.25;12.32;;;8.50;99.90;;;;;;4846391;29;82433;-76
2022/11/15 07:40:29;;;;;;;36.05;10.23;;;8.70;99.90;;;;;;4845751;29;82116;-77
2022/11/15 07:43:02;;;;;;;38.95;11.70;;;8.70;99.90;;;;;;4846061;29;82054;-75
2022/11/15 07:45:28;;;;;;;38.20;10.93;;;9.00;99.90;;;;;;4831594;29;82263;-76
2022/11/15 07:47:55;;;;;;;41.95;10.18;;;9.20;99.90;;;;;;4843738;29;83807;-75
2022/11/15 07:50:22;;;;;;;49.85;10.82;;;9.40;99.90;;;;;;4839965;29;82250;-75
2022/11/15 07:52:52;;;;;;;63.42;10.82;;;9.70;99.90;;;;;;4843015;29;82282;-76
2022/11/15 07:55:18;;;;;;;97.03;13.13;;;9.90;99.70;;;;;;4841049;29;82393;-76
2022/11/15 07:57:43;;;;;;;75.78;12.05;;;9.90;98.20;;;;;;4844697;29;82915;-76
2022/11/15 08:00:10;;;;;;;35.60;10.38;;;10.00;98.90;;;;;;4839977;29;82002;-76
2022/11/15 08:02:35;;;;;;;49.03;10.48;;;10.10;98.50;;;;;;4848227;29;82394;-76
2022/11/15 08:05:01;;;;;;;53.47;9.30;;;10.10;98.10;;;;;;4848363;29;82364;-76
2022/11/15 08:07:30;;;;;;;57.22;10.13;;;10.10;97.70;;;;;;4847881;29;82707;-75
2022/11/15 08:09:56;;;;;;;76.15;9.35;;;10.00;98.10;;;;;;4846093;29;82201;-76
2022/11/15 08:12:22;;;;;;;183.10;10.90;;;10.10;98.20;;;;;;4845858;29;82035;-76
2022/11/15 08:14:48;;;;;;;130.68;12.63;;;10.10;98.30;;;;;;4846478;29;82345;-78
2022/11/15 08:17:13;;;;;;;53.20;10.70;;;10.30;98.00;;;;;;4846383;29;82529;-76
2022/11/15 08:19:39;;;;;;;54.53;9.93;;;10.60;98.40;;;;;;4843417;29;82106;-78
2022/11/15 08:22:05;;;;;;;88.07;9.88;;;10.80;97.40;;;;;;4843058;29;83353;-76
2022/11/15 08:24:30;;;;;;;73.75;10.23;;;11.00;96.80;;;;;;4846487;29;82459;-77
2022/11/15 08:26:56;;;;;;;139.98;9.20;;;11.10;95.80;;;;;;4845853;29;82455;-77
2022/11/15 08:29:22;;;;;;;138.80;9.90;;;11.20;95.20;;;;;;4846328;29;82392;-76
2022/11/15 08:31:47;;;;;;;43.42;8.93;;;11.40;95.80;;;;;;4846049;29;82325;-75
2022/11/15 08:34:13;;;;;;;185.70;9.85;;;11.50;95.40;;;;;;4844570;29;81299;-77
2022/11/15 08:36:39;;;;;;;63.85;8.60;;;11.40;94.20;;;;;;4843268;29;82198;-76
2022/11/15 08:39:05;;;;;;;70.43;8.10;;;11.40;95.10;;;;;;4847420;29;81796;-77
2022/11/15 08:41:33;;;;;;;61.60;8.27;;;11.40;95.30;;;;;;4847564;29;82254;-76
2022/11/15 08:43:59;;;;;;;26.38;8.07;;;11.50;95.50;;;;;;4850669;29;82326;-76
2022/11/15 08:46:25;;;;;;;16.17;6.97;;;11.70;95.40;;;;;;4849415;29;82825;-76
2022/11/15 08:48:50;;;;;;;12.20;6.63;;;11.60;94.60;;;;;;4851030;29;81848;-76
2022/11/15 08:51:16;;;;;;;17.70;7.00;;;11.60;94.80;;;;;;4851214;29;82301;-75
2022/11/15 08:53:42;;;;;;;13.23;6.70;;;11.50;95.10;;;;;;4852345;29;81699;-76
2022/11/15 08:56:09;;;;;;;15.32;7.32;;;11.50;95.20;;;;;;4852990;29;81606;-75
2022/11/15 08:58:35;;;;;;;14.93;6.97;;;11.40;95.20;;;;;;4852017;29;82331;-77
2022/11/15 09:01:01;;;;;;;15.80;8.18;;;11.30;95.20;;;;;;4848679;29;81727;-77
2022/11/15 09:03:27;;;;;;;14.20;6.57;;;11.30;95.80;;;;;;4850659;29;81764;-76
2022/11/15 09:06:00;;;;;;;14.38;6.55;;;11.40;95.50;;;;;;4837218;29;82365;-76
2022/11/15 09:08:29;;;;;;;11.20;6.15;;;11.40;95.40;;;;;;4840765;29;82313;-77
2022/11/15 09:10:55;;;;;;;11.73;6.70;;;11.50;95.50;;;;;;4849400;29;82706;-76
2022/11/15 09:13:21;;;;;;;12.65;7.03;;;11.20;95.60;;;;;;4849952;29;82897;-76
2022/11/15 09:15:47;;;;;;;11.00;6.57;;;11.40;96.40;;;;;;4849865;29;81190;-76
2022/11/15 09:18:12;;;;;;;13.18;6.20;;;11.60;95.40;;;;;;4848664;29;82483;-76
2022/11/15 09:20:38;;;;;;;10.65;6.20;;;11.70;95.00;;;;;;4847871;29;82737;-76
2022/11/15 09:23:05;;;;;;;10.98;6.10;;;11.80;94.70;;;;;;4849469;29;81971;-75
2022/11/15 09:25:31;;;;;;;10.98;5.60;;;12.00;94.30;;;;;;4849170;29;81308;-76
2022/11/15 09:27:57;;;;;;;11.05;6.05;;;12.20;93.90;;;;;;4850108;29;82851;-76
2022/11/15 09:30:24;;;;;;;12.13;6.00;;;12.50;93.10;;;;;;4848453;29;82444;-75
2022/11/15 09:32:50;;;;;;;17.27;5.65;;;12.80;91.60;;;;;;4848438;29;81732;-76
2022/11/15 09:35:15;;;;;;;9.23;5.35;;;13.10;91.60;;;;;;4848636;29;82136;-77
2022/11/15 09:37:41;;;;;;;10.18;5.32;;;13.70;90.30;;;;;;4849417;29;82159;-77
2022/11/15 09:40:12;;;;;;;13.07;5.32;;;13.90;87.60;;;;;;4848583;29;81492;-76
2022/11/15 09:43:23;;;;;;;8.10;5.00;;;14.40;86.90;;;;;;4844061;29;82063;-77
2022/11/15 09:45:56;;;;;;;12.07;5.70;;;15.30;82.40;;;;;;4839658;29;81291;-79
2022/11/15 09:48:43;;;;;;;11.32;5.50;;;15.60;80.60;;;;;;4850718;29;82024;-77
2022/11/15 09:51:15;;;;;;;8.68;4.90;;;15.70;79.10;;;;;;4851155;29;82898;-78
2022/11/15 09:53:46;;;;;;;8.05;5.03;;;15.60;78.90;;;;;;4851580;29;81428;-77
2022/11/15 09:56:18;;;;;;;9.77;5.65;;;15.60;80.20;;;;;;4835177;29;81618;-77
2022/11/15 09:59:05;;;;;;;8.20;5.13;;;15.50;78.90;;;;;;4851423;29;81193;-77
2022/11/15 10:01:43;;;;;;;9.63;5.40;;;16.90;75.20;;;;;;4838522;29;83079;-78
2022/11/15 10:04:09;;;;;;;10.43;5.18;;;17.70;74.10;;;;;;4844203;29;82486;-77
2022/11/15 10:06:39;;;;;;;8.20;5.38;;;17.40;73.00;;;;;;4849438;29;81216;-78
2022/11/15 10:09:13;;;;;;;11.77;6.03;;;17.00;73.70;;;;;;4847777;29;83317;-78
2022/11/15 10:11:40;;;;;;;10.55;5.30;;;16.00;75.30;;;;;;4847115;29;81962;-76
2022/11/15 10:14:22;;;;;;;8.13;5.28;;;15.70;77.90;;;;;;4850286;29;81307;-78
2022/11/15 10:17:00;;;;;;;9.13;5.55;;;15.40;78.40;;;;;;4850489;29;81352;-78
2022/11/15 10:19:50;;;;;;;8.93;5.50;;;15.10;78.90;;;;;;4850790;29;81923;-77
2022/11/15 10:22:28;;;;;;;9.68;5.53;;;14.90;79.30;;;;;;4850481;29;82159;-77
2022/11/15 10:25:19;;;;;;;9.57;5.15;;;14.60;81.20;;;;;;4851261;29;82396;-76
2022/11/15 10:27:52;;;;;;;8.50;5.30;;;14.30;82.00;;;;;;4840273;29;82843;-77
2022/11/15 10:30:18;;;;;;;8.02;5.32;;;14.40;83.20;;;;;;4846474;29;82271;-77
2022/11/15 10:32:46;;;;;;;8.02;4.63;;;14.50;83.80;;;;;;4850192;29;82314;-76
2022/11/15 10:35:20;;;;;;;7.93;4.57;;;14.40;82.70;;;;;;4850265;29;82309;-77
2022/11/15 10:37:46;;;;;;;7.20;4.68;;;14.10;82.60;;;;;;4850526;29;81788;-76
2022/11/15 10:40:22;;;;;;;12.32;6.75;;;13.90;83.50;;;;;;4850433;29;82117;-76
2022/11/15 10:42:48;;;;;;;13.65;6.43;;;13.60;84.70;;;;;;4850640;29;81592;-76
2022/11/15 10:45:33;;;;;;;11.75;5.65;;;13.30;84.20;;;;;;4845359;29;81140;-77
2022/11/15 10:48:14;;;;;;;19.23;9.52;;;13.10;86.10;;;;;;4849996;29;81608;-76
2022/11/15 10:50:45;;;;;;;9.13;5.38;;;13.10;87.30;;;;;;4850437;29;81984;-77
2022/11/15 10:53:30;;;;;;;11.45;4.28;;;13.00;86.50;;;;;;4847852;29;83763;-77
2022/11/15 10:56:00;;;;;;;8.75;4.90;;;12.90;88.00;;;;;;4848910;29;83067;-77
2022/11/15 10:58:34;;;;;;;8.45;5.15;;;12.80;87.60;;;;;;4844606;29;81485;-76
2022/11/15 11:01:18;;;;;;;13.25;5.10;;;12.80;88.60;;;;;;4850223;29;81717;-76
2022/11/15 11:03:59;;;;;;;11.05;5.68;;;12.80;88.50;;;;;;4848955;29;82742;-77
2022/11/15 11:06:25;;;;;;;8.35;4.38;;;12.90;88.70;;;;;;4837174;29;82031;-76
2022/11/15 11:08:57;;;;;;;8.35;4.95;;;12.90;89.70;;;;;;4850504;29;81157;-76
2022/11/15 11:11:22;;;;;;;14.20;6.20;;;13.00;89.20;;;;;;4838691;29;81381;-77
2022/11/15 11:13:48;;;;;;;10.82;6.40;;;13.20;89.40;;;;;;4850212;29;82166;-77
2022/11/15 11:16:14;;;;;;;9.35;4.90;;;13.20;87.80;;;;;;4851435;29;81869;-77
2022/11/15 11:19:12;;;;;;;8.60;4.60;;;13.10;88.20;;;;;;4849552;29;82422;-76
2022/11/15 11:22:10;;;;;;;8.10;4.68;;;13.10;87.10;;;;;;4817004;29;81734;-76
2022/11/15 11:25:04;;;;;;;9.10;4.82;;;13.00;88.80;;;;;;4850156;29;81963;-77
2022/11/15 11:27:48;;;;;;;10.68;5.43;;;12.90;89.10;;;;;;4850216;29;81434;-76
2022/11/15 11:30:26;;;;;;;11.35;4.55;;;12.70;89.50;;;;;;4850225;29;81345;-77
2022/11/15 11:33:23;;;;;;;10.73;4.82;;;12.70;89.50;;;;;;4857574;29;81232;-76
2022/11/15 11:36:14;;;;;;;8.32;4.47;;;12.70;88.90;;;;;;4848090;29;81724;-77
2022/11/15 11:38:44;;;;;;;12.38;5.90;;;12.80;88.30;;;;;;4846915;29;81559;-77
2022/11/15 11:41:28;;;;;;;;;;;12.80;88.30;;;;;;4848936;29;82067;-76
2022/11/15 11:44:33;;;;;;;11.00;5.10;;;12.80;89.20;;;;;;4841880;29;82047;-75
2022/11/15 11:47:14;;;;;;;10.90;4.93;;;12.80;89.50;;;;;;4840551;29;82749;-76
2022/11/15 11:49:50;;;;;;;11.43;4.93;;;12.80;89.70;;;;;;4845186;29;82343;-77
2022/11/15 11:52:33;;;;;;;7.85;4.43;;;12.80;88.30;;;;;;4846759;29;81830;-77
2022/11/15 11:55:23;;;;;;;8.23;4.53;;;12.90;89.30;;;;;;4848367;29;81854;-80
2022/11/15 11:57:53;;;;;;;;;;;13.00;89.10;;;;;;4847612;29;83401;-77
2022/11/15 12:00:23;;;;;;;8.27;4.88;;;13.10;88.80;;;;;;4846707;29;81786;-77
2022/11/15 12:03:05;;;;;;;9.45;4.68;;;13.20;88.20;;;;;;4846594;29;81320;-78
2022/11/15 12:05:40;;;;;;;9.10;4.63;;;13.20;89.00;;;;;;4852006;29;83050;-79
2022/11/15 12:08:40;;;;;;;12.32;5.07;;;13.20;89.00;;;;;;4843293;29;82271;-79
2022/11/15 12:11:17;;;;;;;10.77;5.50;;;13.20;89.10;;;;;;4847106;29;82295;-78
2022/11/15 12:13:44;;;;;;;12.07;4.70;;;13.20;89.40;;;;;;4846034;29;84517;-76
2022/11/15 12:16:26;;;;;;;9.18;4.68;;;13.20;89.30;;;;;;4843100;29;83376;-76
2022/11/15 12:18:54;;;;;;;9.50;5.07;;;13.30;89.00;;;;;;4844496;29;83290;-76
2022/11/15 12:21:25;;;;;;;11.25;5.13;;;13.30;88.00;;;;;;4845042;29;82944;-75
2022/11/15 12:24:00;;;;;;;10.07;5.10;;;13.30;88.10;;;;;;4846008;29;82048;-75
2022/11/15 12:26:31;;;;;;;8.75;5.03;;;13.50;88.80;;;;;;4844383;29;82285;-75
2022/11/15 12:28:59;;;;;;;8.23;4.78;;;13.30;88.80;;;;;;4843721;29;82579;-76
2022/11/15 12:31:34;;;;;;;8.98;4.72;;;13.30;88.80;;;;;;4830988;29;82414;-76
2022/11/15 12:34:22;;;;;;;10.48;4.78;;;13.20;88.10;;;;;;4833777;29;81414;-79
2022/11/15 12:36:50;;;;;;;10.10;4.75;;;13.30;88.30;;;;;;4852217;29;81275;-75
2022/11/15 12:39:17;;;;;;;8.98;5.32;;;13.30;88.20;;;;;;4848872;29;82439;-76
2022/11/15 12:42:03;;;;;;;8.88;5.43;;;13.20;89.00;;;;;;4849411;29;82126;-75
2022/11/15 12:44:35;;;;;;;9.55;5.10;;;13.30;88.50;;;;;;4849367;29;81619;-76
2022/11/15 12:47:26;;;;;;;9.40;4.85;;;13.30;88.50;;;;;;4848632;29;81753;-78
2022/11/15 12:49:52;;;;;;;9.85;5.03;;;13.10;87.80;;;;;;4849731;29;84622;-80
2022/11/15 12:52:18;;;;;;;10.13;5.22;;;13.00;88.60;;;;;;4849154;29;81920;-75
2022/11/15 12:54:53;;;;;;;12.23;5.05;;;13.00;89.00;;;;;;4849458;29;81824;-76
2022/11/15 12:57:28;;;;;;;10.77;5.38;;;12.90;89.90;;;;;;4846418;29;82160;-77
2022/11/15 13:00:01;;;;;;;8.70;5.28;;;12.90;88.30;;;;;;4829704;29;85267;-75
2022/11/15 13:02:45;;;;;;;9.40;5.40;;;12.90;89.20;;;;;;4844297;29;81978;-78
2022/11/15 13:05:19;;;;;;;12.82;6.53;;;13.00;90.00;;;;;;4848825;29;82897;-77
2022/11/15 13:07:44;;;;;;;10.18;5.60;;;13.10;89.00;;;;;;4849564;29;81994;-76
2022/11/15 13:10:13;;;;;;;11.50;5.40;;;13.10;89.20;;;;;;4848616;29;82543;-77
2022/11/15 13:12:45;;;;;;;10.38;6.22;;;13.00;89.70;;;;;;4848808;29;81934;-76
2022/11/15 13:15:13;;;;;;;16.33;6.90;;;13.20;89.80;;;;;;4866991;29;81722;-77
2022/11/15 13:17:49;;;;;;;11.85;6.38;;;13.20;88.60;;;;;;4849054;29;81649;-76
2022/11/15 13:20:14;;;;;;;10.15;6.20;;;13.20;88.20;;;;;;4848260;29;82702;-77
2022/11/15 13:22:59;;;;;;;11.23;6.25;;;13.10;88.20;;;;;;4848303;29;82659;-77
2022/11/15 13:25:39;;;;;;;10.30;6.05;;;13.00;88.60;;;;;;4847887;29;81551;-77
2022/11/15 13:28:14;;;;;;;11.90;6.03;;;13.00;89.20;;;;;;4851353;29;82391;-77
2022/11/15 13:30:50;;;;;;;13.50;6.68;;;13.00;89.00;;;;;;4850886;29;83185;-76
2022/11/15 13:33:23;;;;;;;14.75;6.38;;;13.00;88.90;;;;;;4851196;29;82777;-76
2022/11/15 13:35:53;;;;;;;11.38;5.95;;;13.00;88.70;;;;;;4850959;29;81466;-77
2022/11/15 13:38:31;;;;;;;12.18;6.22;;;13.00;89.00;;;;;;4850314;29;82196;-77
2022/11/15 13:40:58;;;;;;;10.57;6.13;;;13.00;89.70;;;;;;4850557;29;81862;-77
2022/11/15 13:43:28;;;;;;;13.82;6.60;;;13.10;90.10;;;;;;4850947;29;82013;-76
2022/11/15 13:46:12;;;;;;;12.90;6.55;;;13.20;89.60;;;;;;4851925;29;81729;-76
2022/11/15 13:48:38;;;;;;;12.50;6.10;;;13.20;89.80;;;;;;4833115;29;82327;-76
2022/11/15 13:51:28;;;;;;;11.70;6.60;;;13.30;89.10;;;;;;4844082;29;83744;-78
2022/11/15 13:54:06;;;;;;;13.18;5.50;;;13.40;88.70;;;;;;4863479;29;82113;-75
2022/11/15 13:56:33;;;;;;;19.20;5.88;;;13.40;87.30;;;;;;4852192;29;83327;-76
2022/11/15 13:59:00;;;;;;;13.35;5.15;;;13.30;86.80;;;;;;4850719;29;82542;-78
2022/11/15 14:01:30;;;;;;;9.38;4.13;;;13.30;87.00;;;;;;4832551;29;82194;-76
2022/11/15 14:04:00;;;;;;;10.05;4.63;;;13.20;85.80;;;;;;4845494;29;82384;-76
2022/11/15 14:06:28;;;;;;;10.88;4.63;;;13.20;86.30;;;;;;4848685;29;81481;-76
2022/11/15 14:09:32;;;;;;;10.77;4.22;;;13.20;87.10;;;;;;4850389;29;82621;-76
2022/11/15 14:11:59;;;;;;;42.47;5.80;;;13.20;86.50;;;;;;4843445;29;82600;-79
2022/11/15 14:14:27;;;;;;;47.45;4.45;;;13.20;85.40;;;;;;4850978;29;81471;-76
2022/11/15 14:16:56;;;;;;;12.98;3.10;;;13.30;84.80;;;;;;4850818;29;82116;-77
2022/11/15 14:19:21;;;;;;;13.40;3.08;;;13.20;84.30;;;;;;4850050;29;81735;-77
2022/11/15 14:22:20;;;;;;;4.00;2.10;;;13.20;82.60;;;;;;4849738;29;82483;-75
2022/11/15 14:25:05;;;;;;;6.60;2.42;;;13.30;82.10;;;;;;4847362;29;82958;-76
2022/11/15 14:27:31;;;;;;;15.05;2.78;;;13.30;82.10;;;;;;4838526;29;81345;-76
2022/11/15 14:29:57;;;;;;;9.63;2.60;;;13.30;82.10;;;;;;4850570;29;81801;-77
2022/11/15 14:32:25;;;;;;;8.45;2.95;;;13.30;82.80;;;;;;4850207;29;81836;-76
2022/11/15 14:34:57;;;;;;;6.63;3.65;;;13.30;82.80;;;;;;4850256;29;81985;-76
2022/11/15 14:37:32;;;;;;;9.02;4.03;;;13.20;83.00;;;;;;4849760;29;81976;-77
2022/11/15 14:39:58;;;;;;;11.82;4.43;;;13.20;84.10;;;;;;4849965;29;82478;-76
2022/11/15 14:42:24;;;;;;;18.42;5.15;;;13.10;85.00;;;;;;4849851;29;81688;-77
2022/11/15 14:44:51;;;;;;;16.85;5.47;;;13.10;86.10;;;;;;4850211;29;82134;-75
2022/11/15 14:47:17;;;;;;;22.30;11.38;;;13.10;87.90;;;;;;4847732;29;82901;-76
2022/11/15 14:49:43;;;;;;;14.50;5.82;;;13.00;88.20;;;;;;4847123;29;81831;-76
2022/11/15 14:52:27;;;;;;;13.73;5.47;;;13.00;88.70;;;;;;4845246;29;82197;-75
2022/11/15 14:54:54;;;;;;;12.00;5.53;;;12.90;89.30;;;;;;4848858;29;81216;-76
2022/11/15 14:57:20;;;;;;;16.60;6.20;;;12.90;89.80;;;;;;4848913;29;81841;-77
2022/11/15 14:59:46;;;;;;;12.23;6.28;;;12.80;89.70;;;;;;4849255;29;81878;-77
2022/11/15 15:02:24;;;;;;;14.45;6.15;;;12.70;89.90;;;;;;4851175;29;82375;-76
2022/11/15 15:04:50;;;;;;;12.85;5.32;;;12.50;90.30;;;;;;4847015;29;82195;-77
2022/11/15 15:07:16;;;;;;;11.95;4.93;;;12.50;90.70;;;;;;4843382;29;81201;-77
2022/11/15 15:09:43;;;;;;;18.17;5.53;;;12.40;90.30;;;;;;4847525;29;81750;-77
2022/11/15 15:12:21;;;;;;;12.40;5.22;;;12.40;90.50;;;;;;4846192;29;83145;-75
2022/11/15 15:14:48;;;;;;;12.30;4.70;;;12.40;89.70;;;;;;4838011;29;83237;-76
2022/11/15 15:17:14;;;;;;;7.82;4.05;;;12.30;89.20;;;;;;4846759;29;81709;-77
2022/11/15 15:19:40;;;;;;;12.27;3.65;;;12.30;88.20;;;;;;4846650;29;81955;-77
2022/11/15 15:22:16;;;;;;;12.27;3.30;;;12.30;86.60;;;;;;4845084;29;81980;-75
2022/11/15 15:24:46;;;;;;;11.57;3.47;;;12.20;86.30;;;;;;4847957;29;81748;-75
2022/11/15 15:27:12;;;;;;;13.30;3.70;;;12.20;85.80;;;;;;4854139;29;81659;-76
2022/11/15 15:29:38;;;;;;;8.38;3.25;;;12.10;85.80;;;;;;4847444;29;83063;-75
2022/11/15 15:32:05;;;;;;;7.60;3.55;;;12.10;85.90;;;;;;4848193;29;82253;-75
2022/11/15 15:34:31;;;;;;;11.73;3.97;;;12.00;86.00;;;;;;4831196;29;82420;-78
2022/11/15 15:37:15;;;;;;;11.95;4.07;;;12.00;86.60;;;;;;4848399;29;82815;-76
2022/11/15 15:39:41;;;;;;;12.63;4.72;;;12.00;86.10;;;;;;4853337;29;82382;-76
2022/11/15 15:42:06;;;;;;;11.57;3.30;;;11.90;86.30;;;;;;4850171;29;81928;-76
2022/11/15 15:44:32;;;;;;;6.70;3.33;;;11.90;85.40;;;;;;4849858;29;82002;-76
2022/11/15 15:46:58;;;;;;;8.88;3.85;;;11.80;85.60;;;;;;4849832;29;81308;-75
2022/11/15 15:49:23;;;;;;;7.75;3.47;;;11.70;85.30;;;;;;4849235;29;81796;-75
2022/11/15 15:51:49;;;;;;;9.68;3.72;;;11.70;85.70;;;;;;4848176;29;81662;-75
2022/11/15 15:54:15;;;;;;;10.05;4.00;;;11.60;86.10;;;;;;4838714;29;82774;-75
2022/11/15 15:56:41;;;;;;;12.63;4.88;;;11.50;87.00;;;;;;4864473;29;81996;-76
2022/11/15 15:59:06;;;;;;;13.68;4.90;;;11.40;87.50;;;;;;4851093;29;82265;-74
2022/11/15 16:01:32;;;;;;;11.63;4.03;;;11.40;87.70;;;;;;4849587;29;83291;-79
2022/11/15 16:03:57;;;;;;;8.40;4.20;;;11.40;87.70;;;;;;4850026;29;83347;-74
2022/11/15 16:06:46;;;;;;;10.48;4.22;;;11.30;88.30;;;;;;4849748;29;81671;-75
2022/11/15 16:09:16;;;;;;;10.10;4.53;;;11.30;88.20;;;;;;4840441;29;82347;-77
2022/11/15 16:11:43;;;;;;;9.27;4.38;;;11.30;88.70;;;;;;4843953;29;82104;-77
2022/11/15 16:14:09;;;;;;;14.13;5.07;;;11.20;89.30;;;;;;4853605;29;81563;-77
2022/11/15 16:16:36;;;;;;;11.35;4.50;;;11.10;90.20;;;;;;4851702;29;81237;-75
2022/11/15 16:19:02;;;;;;;10.02;4.57;;;11.10;90.10;;;;;;4841862;29;81938;-75
2022/11/15 16:21:28;;;;;;;9.63;4.68;;;11.10;90.20;;;;;;4846349;29;81850;-76
2022/11/15 16:23:54;;;;;;;10.88;4.80;;;11.00;90.40;;;;;;4843794;29;82329;-75
2022/11/15 16:26:26;;;;;;;13.85;5.18;;;11.00;90.70;;;;;;4846730;29;82882;-75
2022/11/15 16:28:52;;;;;;;12.05;5.03;;;11.00;90.80;;;;;;4847915;29;82198;-75
2022/11/15 16:31:20;;;;;;;13.32;5.15;;;11.00;90.70;;;;;;4847512;29;82166;-74
2022/11/15 16:33:46;;;;;;;14.85;4.97;;;11.00;90.70;;;;;;4844423;29;82751;-77
2022/11/15 16:36:22;;;;;;;11.30;5.05;;;11.10;90.90;;;;;;4838724;29;81420;-75
2022/11/15 16:38:49;;;;;;;19.10;6.43;;;11.10;91.00;;;;;;4846548;29;81698;-76
2022/11/15 16:41:17;;;;;;;14.43;5.28;;;11.00;91.10;;;;;;4847354;29;82085;-76
2022/11/15 16:43:45;;;;;;;19.50;5.95;;;11.10;91.20;;;;;;4847838;29;82016;-76
2022/11/15 16:46:25;;;;;;;11.60;5.38;;;11.10;91.20;;;;;;4846376;29;82154;-76
2022/11/15 16:48:53;;;;;;;13.18;5.40;;;11.10;91.20;;;;;;4847725;29;82318;-76
2022/11/15 16:51:19;;;;;;;15.50;5.88;;;11.00;91.20;;;;;;4846808;29;83244;-77
2022/11/15 16:53:45;;;;;;;10.07;5.40;;;11.10;91.20;;;;;;4847771;29;83159;-76
2022/11/15 16:56:19;;;;;;;12.45;5.07;;;11.10;91.10;;;;;;4847783;29;81423;-78